Time;durP1;ratioP1;P1;durP2;ratioP2;P2;SDS_P1;SDS_P2;PMS_P1;PMS_P2;Temp;Humidity;BMP_temperature;BMP_pressure;BME280_temperature;BME280_humidity;BME280_pressure;Samples;Min_cycle;Max_cycle;Signal;HPM_P1;HPM_P2
2024/01/03 00:02:11;;;;;;;11.38;4.95;;;;;;;;;;5017486;28;20033;-56
2024/01/03 00:04:37;;;;;;;10.63;5.30;;;;;;;;;;5018335;28;20063;-57
2024/01/03 00:07:02;;;;;;;10.45;5.47;;;;;;;;;;5019155;28;21819;-55
2024/01/03 00:09:27;;;;;;;9.68;5.13;;;;;;;;;;5019466;28;20555;-58
2024/01/03 00:11:53;;;;;;;10.65;5.20;;;;;;;;;;5016361;28;20107;-58
2024/01/03 00:14:24;;;;;;;9.18;5.22;;;;;;;;;;5019746;28;20663;-58
2024/01/03 00:16:50;;;;;;;11.90;5.05;;;;;;;;;;5020007;28;20637;-56
2024/01/03 00:19:16;;;;;;;8.65;4.85;;;;;;;;;;5018709;28;20449;-58
2024/01/03 00:21:42;;;;;;;10.48;5.03;;;;;;;;;;5018224;28;20570;-60
2024/01/03 00:24:10;;;;;;;11.60;5.38;;;;;;;;;;5018406;28;20029;-59
2024/01/03 00:26:36;;;;;;;10.57;5.07;;;;;;;;;;5022877;28;21737;-58
2024/01/03 00:29:03;;;;;;;14.85;6.03;;;;;;;;;;5017389;28;20770;-58
2024/01/03 00:31:31;;;;;;;11.20;4.97;;;;;;;;;;5017523;28;20161;-59
2024/01/03 00:33:56;;;;;;;11.88;4.63;;;;;;;;;;5019475;28;20033;-59
2024/01/03 00:36:21;;;;;;;11.32;5.05;;;;;;;;;;5028022;28;20028;-58
2024/01/03 00:38:47;;;;;;;12.85;4.95;;;;;;;;;;5020869;28;20583;-57
2024/01/03 00:41:12;;;;;;;10.82;4.93;;;;;;;;;;5016363;28;20067;-59
2024/01/03 00:43:38;;;;;;;7.55;4.38;;;;;;;;;;5018471;28;20091;-60
2024/01/03 00:46:03;;;;;;;11.70;4.60;;;;;;;;;;5023706;28;20025;-59
2024/01/03 00:48:29;;;;;;;7.20;4.05;;;;;;;;;;5018186;28;20033;-57
2024/01/03 00:50:55;;;;;;;12.55;4.32;;;;;;;;;;5017192;28;20350;-60
2024/01/03 00:53:20;;;;;;;10.05;4.80;;;;;;;;;;5017097;28;20037;-57
2024/01/03 00:55:46;;;;;;;11.90;4.65;;;;;;;;;;5019381;28;20653;-59
2024/01/03 00:58:12;;;;;;;8.30;4.53;;;;;;;;;;5017179;28;20592;-58
2024/01/03 01:00:37;;;;;;;12.18;4.47;;;;;;;;;;5067670;28;21848;-60
2024/01/03 01:03:03;;;;;;;7.75;4.18;;;;;;;;;;5016915;28;20056;-59
2024/01/03 01:05:28;;;;;;;8.93;4.57;;;;;;;;;;5017149;28;20036;-59
2024/01/03 01:07:54;;;;;;;9.70;4.40;;;;;;;;;;5021381;28;20051;-59
2024/01/03 01:10:19;;;;;;;7.97;3.95;;;;;;;;;;5021547;28;20491;-58
2024/01/03 01:12:44;;;;;;;11.25;5.00;;;;;;;;;;5020186;28;20049;-57
2024/01/03 01:15:10;;;;;;;6.75;3.80;;;;;;;;;;5022487;28;20128;-59
2024/01/03 01:17:36;;;;;;;5.88;4.18;;;;;;;;;;5021213;28;20131;-56
2024/01/03 01:20:01;;;;;;;9.82;4.45;;;;;;;;;;5020411;28;20040;-57
2024/01/03 01:22:26;;;;;;;14.70;4.50;;;;;;;;;;5026675;28;20037;-59
2024/01/03 01:24:52;;;;;;;9.43;5.35;;;;;;;;;;5020363;28;20033;-59
2024/01/03 01:27:17;;;;;;;11.25;4.75;;;;;;;;;;5021198;28;20040;-58
2024/01/03 01:29:42;;;;;;;10.52;4.90;;;;;;;;;;5021828;28;20302;-56
2024/01/03 01:32:07;;;;;;;8.88;4.45;;;;;;;;;;5020317;28;20033;-58
2024/01/03 01:34:33;;;;;;;9.82;4.78;;;;;;;;;;5023708;28;20025;-58
2024/01/03 01:36:58;;;;;;;10.20;4.55;;;;;;;;;;5021249;28;23089;-58
2024/01/03 01:39:23;;;;;;;11.15;5.85;;;;;;;;;;5021245;28;20025;-60
2024/01/03 01:41:48;;;;;;;11.63;4.40;;;;;;;;;;5019254;28;20410;-59
2024/01/03 01:44:14;;;;;;;8.10;4.25;;;;;;;;;;5021533;28;20040;-58
2024/01/03 01:46:40;;;;;;;9.40;4.57;;;;;;;;;;5022514;28;20417;-57
2024/01/03 01:49:05;;;;;;;10.27;4.93;;;;;;;;;;5020488;28;20035;-58
2024/01/03 01:51:32;;;;;;;8.90;4.10;;;;;;;;;;5018372;28;20726;-60
2024/01/03 01:53:57;;;;;;;12.65;4.55;;;;;;;;;;5020807;28;20036;-57
2024/01/03 01:56:23;;;;;;;10.52;4.85;;;;;;;;;;5018936;28;21711;-56
2024/01/03 01:58:49;;;;;;;11.68;5.15;;;;;;;;;;5021557;28;20024;-58
2024/01/03 02:01:14;;;;;;;11.23;4.30;;;;;;;;;;5021104;28;20021;-56
2024/01/03 02:03:40;;;;;;;7.47;4.35;;;;;;;;;;5020518;28;20124;-59
2024/01/03 02:06:08;;;;;;;13.23;4.88;;;;;;;;;;5036913;28;20033;-60
2024/01/03 02:08:33;;;;;;;9.23;4.57;;;;;;;;;;5020301;28;20295;-57
2024/01/03 02:10:59;;;;;;;10.93;4.85;;;;;;;;;;5021392;28;20543;-59
2024/01/03 02:13:24;;;;;;;10.60;4.88;;;;;;;;;;5019642;28;20036;-59
2024/01/03 02:15:49;;;;;;;10.30;5.50;;;;;;;;;;5022918;28;20124;-57
2024/01/03 02:18:15;;;;;;;8.48;4.60;;;;;;;;;;5019127;28;20068;-58
2024/01/03 02:20:40;;;;;;;8.55;4.93;;;;;;;;;;5026113;28;20028;-60
2024/01/03 02:23:06;;;;;;;8.20;4.72;;;;;;;;;;5020217;28;20029;-59
2024/01/03 02:25:31;;;;;;;13.90;5.15;;;;;;;;;;5020111;28;20677;-56
2024/01/03 02:27:56;;;;;;;10.40;4.97;;;;;;;;;;5020334;28;20428;-59
2024/01/03 02:30:22;;;;;;;7.35;4.55;;;;;;;;;;5019494;28;20901;-58
2024/01/03 02:32:47;;;;;;;10.95;4.50;;;;;;;;;;5021261;28;20041;-59
2024/01/03 02:35:12;;;;;;;6.88;4.40;;;;;;;;;;5035469;28;20461;-59
2024/01/03 02:37:37;;;;;;;10.90;4.75;;;;;;;;;;5023095;28;20152;-57
2024/01/03 02:40:04;;;;;;;17.60;5.57;;;;;;;;;;5019372;28;20378;-59
2024/01/03 02:42:29;;;;;;;11.63;5.43;;;;;;;;;;5017945;28;20638;-59
2024/01/03 02:44:54;;;;;;;11.15;4.97;;;;;;;;;;5022913;28;20403;-54
2024/01/03 02:47:19;;;;;;;10.55;5.55;;;;;;;;;;5024585;28;20034;-56
2024/01/03 02:49:45;;;;;;;14.23;5.65;;;;;;;;;;5021501;28;20083;-55
2024/01/03 02:52:10;;;;;;;12.18;4.75;;;;;;;;;;5020139;28;20029;-57
2024/01/03 02:54:35;;;;;;;8.77;4.78;;;;;;;;;;5018913;28;20060;-57
2024/01/03 02:57:00;;;;;;;10.73;5.03;;;;;;;;;;5018358;28;20094;-59
2024/01/03 02:59:26;;;;;;;9.93;4.72;;;;;;;;;;5019596;28;20067;-59
2024/01/03 03:01:51;;;;;;;8.57;4.47;;;;;;;;;;5001864;28;20509;-57
2024/01/03 03:04:17;;;;;;;10.68;4.78;;;;;;;;;;5018759;28;20040;-58
2024/01/03 03:06:42;;;;;;;11.80;5.22;;;;;;;;;;5019373;28;20142;-57
2024/01/03 03:09:07;;;;;;;11.00;5.45;;;;;;;;;;5019102;28;20428;-58
2024/01/03 03:11:32;;;;;;;9.95;4.95;;;;;;;;;;5017574;28;20457;-60
2024/01/03 03:13:58;;;;;;;10.07;4.63;;;;;;;;;;5021435;28;20065;-60
2024/01/03 03:16:23;;;;;;;15.68;5.03;;;;;;;;;;5018692;28;20025;-57
2024/01/03 03:18:48;;;;;;;11.50;4.93;;;;;;;;;;5017869;28;20056;-59
2024/01/03 03:21:13;;;;;;;8.27;4.63;;;;;;;;;;5019816;28;20068;-59
2024/01/03 03:23:40;;;;;;;8.27;4.53;;;;;;;;;;5017684;28;20555;-58
2024/01/03 03:26:05;;;;;;;10.02;5.03;;;;;;;;;;5019039;28;20766;-58
2024/01/03 03:28:31;;;;;;;10.98;5.30;;;;;;;;;;5024789;28;20028;-58
2024/01/03 03:30:57;;;;;;;10.80;5.20;;;;;;;;;;5018159;28;20080;-59
2024/01/03 03:33:22;;;;;;;10.48;4.90;;;;;;;;;;5018894;28;20881;-59
2024/01/03 03:35:47;;;;;;;11.45;5.22;;;;;;;;;;5034768;28;20032;-57
2024/01/03 03:38:12;;;;;;;10.65;5.22;;;;;;;;;;5017631;28;20048;-55
2024/01/03 03:40:38;;;;;;;8.82;5.22;;;;;;;;;;5019830;28;20115;-61
2024/01/03 03:43:03;;;;;;;11.93;5.75;;;;;;;;;;5017198;28;20016;-59
2024/01/03 03:45:28;;;;;;;9.57;5.05;;;;;;;;;;5024595;28;20759;-59
2024/01/03 03:47:54;;;;;;;10.65;5.65;;;;;;;;;;5018941;28;20036;-59
2024/01/03 03:50:19;;;;;;;13.30;5.47;;;;;;;;;;5016612;28;20029;-59
2024/01/03 03:52:45;;;;;;;10.90;5.60;;;;;;;;;;5018760;28;20404;-59
2024/01/03 03:55:12;;;;;;;11.07;5.03;;;;;;;;;;5018393;28;20035;-59
2024/01/03 03:57:37;;;;;;;8.32;4.63;;;;;;;;;;5017482;28;20037;-58
2024/01/03 04:00:03;;;;;;;13.77;5.00;;;;;;;;;;5020440;28;20087;-58
2024/01/03 04:02:28;;;;;;;9.07;4.82;;;;;;;;;;5018081;28;20079;-59
2024/01/03 04:04:54;;;;;;;11.90;4.90;;;;;;;;;;5018248;28;20032;-57
2024/01/03 04:07:20;;;;;;;13.23;4.78;;;;;;;;;;5017711;28;20029;-57
2024/01/03 04:09:45;;;;;;;11.60;5.32;;;;;;;;;;5019145;28;20029;-58
2024/01/03 04:12:10;;;;;;;11.32;5.40;;;;;;;;;;5017324;28;20051;-59
2024/01/03 04:14:39;;;;;;;9.25;5.93;;;;;;;;;;5018103;28;20779;-59
2024/01/03 04:17:04;;;;;;;17.33;5.83;;;;;;;;;;5018034;28;20097;-59
2024/01/03 04:19:30;;;;;;;8.90;5.13;;;;;;;;;;5018805;28;20028;-58
2024/01/03 04:21:56;;;;;;;10.45;5.25;;;;;;;;;;5018264;28;20068;-56
2024/01/03 04:24:21;;;;;;;11.23;5.20;;;;;;;;;;5017194;28;20103;-57
2024/01/03 04:26:46;;;;;;;11.20;5.32;;;;;;;;;;5017006;28;20036;-59
2024/01/03 04:29:12;;;;;;;12.43;5.95;;;;;;;;;;5018468;28;20055;-60
2024/01/03 04:31:37;;;;;;;9.35;5.15;;;;;;;;;;5017879;28;20778;-57
2024/01/03 04:34:03;;;;;;;12.43;5.70;;;;;;;;;;5018571;28;20017;-57
2024/01/03 04:36:28;;;;;;;7.72;5.35;;;;;;;;;;5020673;28;20090;-57
2024/01/03 04:38:53;;;;;;;16.95;5.60;;;;;;;;;;5000209;28;20045;-59
2024/01/03 04:41:18;;;;;;;11.77;6.10;;;;;;;;;;5018448;28;20031;-58
2024/01/03 04:43:44;;;;;;;10.00;5.20;;;;;;;;;;5024979;28;20037;-58
2024/01/03 04:46:09;;;;;;;11.95;4.90;;;;;;;;;;5025462;28;20032;-58
2024/01/03 04:48:34;;;;;;;9.57;4.70;;;;;;;;;;5021664;28;20554;-58
2024/01/03 04:51:00;;;;;;;10.82;6.00;;;;;;;;;;5022748;28;20025;-57
2024/01/03 04:53:25;;;;;;;9.70;5.30;;;;;;;;;;5020550;28;20683;-58
2024/01/03 04:55:51;;;;;;;11.50;5.63;;;;;;;;;;5021832;28;20281;-57
2024/01/03 04:58:16;;;;;;;12.20;5.28;;;;;;;;;;5021493;28;20843;-60
2024/01/03 05:00:41;;;;;;;10.80;5.30;;;;;;;;;;5022606;28;21724;-59
2024/01/03 05:03:06;;;;;;;11.15;6.00;;;;;;;;;;5021710;28;20024;-55
2024/01/03 05:05:32;;;;;;;15.27;5.63;;;;;;;;;;5021231;28;20055;-59
2024/01/03 05:07:57;;;;;;;12.02;5.50;;;;;;;;;;5019634;28;20033;-58
2024/01/03 05:10:22;;;;;;;12.65;5.78;;;;;;;;;;5020724;28;20028;-58
2024/01/03 05:12:47;;;;;;;9.88;5.25;;;;;;;;;;5021937;28;20056;-58
2024/01/03 05:15:13;;;;;;;9.70;5.75;;;;;;;;;;5021203;28;20133;-59
2024/01/03 05:17:38;;;;;;;9.07;5.38;;;;;;;;;;5022357;28;20044;-57
2024/01/03 05:20:04;;;;;;;10.45;5.55;;;;;;;;;;5022100;28;20497;-56
2024/01/03 05:22:31;;;;;;;12.90;6.93;;;;;;;;;;5029736;28;20560;-56
2024/01/03 05:24:56;;;;;;;21.52;12.68;;;;;;;;;;5023766;28;20037;-59
2024/01/03 05:27:21;;;;;;;10.63;7.38;;;;;;;;;;5021646;28;20079;-57
2024/01/03 05:29:47;;;;;;;23.60;12.63;;;;;;;;;;5021034;28;20393;-58
2024/01/03 05:32:12;;;;;;;13.25;7.32;;;;;;;;;;5020628;28;20035;-58
2024/01/03 05:34:37;;;;;;;18.50;8.25;;;;;;;;;;5022261;28;20116;-59
2024/01/03 05:37:03;;;;;;;13.55;8.13;;;;;;;;;;5024490;28;20048;-61
2024/01/03 05:39:28;;;;;;;13.38;6.40;;;;;;;;;;5026798;28;20025;-59
2024/01/03 05:41:53;;;;;;;16.55;6.18;;;;;;;;;;5021101;28;20509;-60
2024/01/03 05:44:19;;;;;;;11.55;6.35;;;;;;;;;;5025328;28;20025;-59
2024/01/03 05:46:44;;;;;;;10.57;4.78;;;;;;;;;;5023472;28;20481;-57
2024/01/03 05:49:10;;;;;;;15.15;6.50;;;;;;;;;;5021201;28;20289;-59
2024/01/03 05:51:35;;;;;;;11.77;6.20;;;;;;;;;;5019362;28;20480;-56
2024/01/03 05:54:00;;;;;;;11.70;6.10;;;;;;;;;;5021284;28;20037;-58
2024/01/03 05:56:27;;;;;;;13.25;6.03;;;;;;;;;;5018772;28;20103;-60
2024/01/03 05:58:52;;;;;;;9.18;5.60;;;;;;;;;;5023629;28;20060;-59
2024/01/03 06:01:18;;;;;;;19.00;6.07;;;;;;;;;;5020357;28;20159;-58
2024/01/03 06:03:43;;;;;;;14.35;4.90;;;;;;;;;;5020042;28;20029;-55
2024/01/03 06:06:09;;;;;;;9.45;5.22;;;;;;;;;;5022093;28;20056;-59
2024/01/03 06:08:35;;;;;;;15.32;6.07;;;;;;;;;;5019494;28;20078;-59
2024/01/03 06:11:00;;;;;;;12.68;6.20;;;;;;;;;;5023807;28;20045;-59
2024/01/03 06:13:25;;;;;;;14.00;6.50;;;;;;;;;;5033831;28;20107;-57
2024/01/03 06:15:50;;;;;;;13.50;6.45;;;;;;;;;;5022576;28;20064;-58
2024/01/03 06:18:16;;;;;;;17.55;6.35;;;;;;;;;;5019432;28;20032;-59
2024/01/03 06:20:42;;;;;;;14.68;5.05;;;;;;;;;;5028007;28;20363;-59
2024/01/03 06:23:07;;;;;;;12.02;5.72;;;;;;;;;;5021726;28;20064;-58
2024/01/03 06:25:32;;;;;;;11.05;4.65;;;;;;;;;;5020770;28;20096;-56
2024/01/03 06:27:58;;;;;;;11.25;4.70;;;;;;;;;;5019193;28;20112;-55
2024/01/03 06:30:23;;;;;;;16.88;6.65;;;;;;;;;;5022228;28;20025;-58
2024/01/03 06:32:48;;;;;;;13.02;6.22;;;;;;;;;;5013132;28;21247;-58
2024/01/03 06:35:14;;;;;;;13.43;5.53;;;;;;;;;;5021742;28;20025;-58
2024/01/03 06:37:40;;;;;;;11.23;5.10;;;;;;;;;;5024219;28;20032;-58
2024/01/03 06:40:05;;;;;;;27.08;9.85;;;;;;;;;;5021535;28;20087;-56
2024/01/03 06:42:31;;;;;;;21.65;7.05;;;;;;;;;;5019372;28;20032;-57
2024/01/03 06:44:57;;;;;;;16.60;5.40;;;;;;;;;;5021983;28;20123;-56
2024/01/03 06:47:22;;;;;;;30.77;9.20;;;;;;;;;;5024426;28;20060;-57
2024/01/03 06:49:47;;;;;;;29.70;8.93;;;;;;;;;;5020968;28;20422;-58
2024/01/03 06:52:12;;;;;;;23.77;7.57;;;;;;;;;;5023658;28;20167;-56
2024/01/03 06:54:38;;;;;;;19.73;7.07;;;;;;;;;;5038615;28;20021;-56
2024/01/03 06:57:03;;;;;;;31.75;12.07;;;;;;;;;;5029327;28;20506;-57
2024/01/03 06:59:28;;;;;;;23.73;10.52;;;;;;;;;;5030636;28;20325;-59
2024/01/03 07:01:54;;;;;;;13.07;6.40;;;;;;;;;;5022448;28;20062;-55
2024/01/03 07:04:21;;;;;;;16.98;7.10;;;;;;;;;;5020097;28;20882;-54
2024/01/03 07:06:47;;;;;;;18.13;6.97;;;;;;;;;;5013868;28;22081;-56
2024/01/03 07:09:12;;;;;;;15.93;6.00;;;;;;;;;;5015087;28;20029;-54
2024/01/03 07:11:37;;;;;;;17.70;6.78;;;;;;;;;;5012795;28;21022;-56
2024/01/03 07:14:03;;;;;;;17.13;7.28;;;;;;;;;;5016405;28;20037;-55
2024/01/03 07:16:28;;;;;;;19.52;7.07;;;;;;;;;;5016618;28;20040;-57
2024/01/03 07:18:53;;;;;;;13.20;6.65;;;;;;;;;;5020823;28;20116;-52
2024/01/03 07:21:20;;;;;;;20.92;9.40;;;;;;;;;;5019534;28;20041;-57
2024/01/03 07:23:45;;;;;;;13.43;5.97;;;;;;;;;;5017347;28;20057;-56
2024/01/03 07:26:10;;;;;;;14.40;5.22;;;;;;;;;;5019854;28;20037;-56
2024/01/03 07:28:36;;;;;;;15.63;7.13;;;;;;;;;;5018685;28;21570;-56
2024/01/03 07:31:02;;;;;;;20.95;7.90;;;;;;;;;;5017686;28;20385;-55
2024/01/03 07:33:27;;;;;;;21.05;7.63;;;;;;;;;;5017772;28;20029;-49
2024/01/03 07:35:53;;;;;;;14.52;6.30;;;;;;;;;;5021756;28;20029;-53
2024/01/03 07:38:19;;;;;;;15.13;5.40;;;;;;;;;;5017052;28;20137;-50
2024/01/03 07:40:44;;;;;;;12.27;5.10;;;;;;;;;;5017463;28;20040;-56
2024/01/03 07:43:09;;;;;;;13.13;5.70;;;;;;;;;;5013548;28;20110;-50
2024/01/03 07:45:35;;;;;;;17.65;7.00;;;;;;;;;;5019545;28;20029;-55
2024/01/03 07:48:00;;;;;;;11.05;4.50;;;;;;;;;;5013225;28;20033;-56
2024/01/03 07:50:25;;;;;;;9.25;3.97;;;;;;;;;;5014988;28;20473;-53
2024/01/03 07:52:50;;;;;;;17.77;5.88;;;;;;;;;;5015053;28;20024;-50
2024/01/03 07:55:16;;;;;;;11.15;4.63;;;;;;;;;;5015731;28;20029;-53
2024/01/03 07:57:41;;;;;;;7.47;4.68;;;;;;;;;;5017186;28;20533;-50
2024/01/03 08:00:07;;;;;;;6.97;3.25;;;;;;;;;;5014677;28;20093;-48
2024/01/03 08:02:33;;;;;;;10.45;4.10;;;;;;;;;;5019598;28;20020;-45
2024/01/03 08:04:58;;;;;;;7.75;4.38;;;;;;;;;;5018622;28;20037;-49
2024/01/03 08:07:23;;;;;;;6.93;3.40;;;;;;;;;;5018317;28;20033;-49
2024/01/03 08:09:50;;;;;;;9.35;3.55;;;;;;;;;;5019659;28;20098;-49
2024/01/03 08:12:16;;;;;;;6.22;2.92;;;;;;;;;;5018189;28;20413;-47
2024/01/03 08:14:41;;;;;;;5.25;2.83;;;;;;;;;;5020405;28;20052;-45
2024/01/03 08:17:06;;;;;;;4.45;2.50;;;;;;;;;;5018030;28;20583;-50
2024/01/03 08:19:32;;;;;;;11.50;3.58;;;;;;;;;;5017761;28;20033;-51
2024/01/03 08:21:57;;;;;;;7.72;2.53;;;;;;;;;;5018119;28;20036;-53
2024/01/03 08:24:22;;;;;;;8.32;2.90;;;;;;;;;;5018847;28;20456;-54
2024/01/03 08:26:49;;;;;;;8.00;3.95;;;;;;;;;;5018530;28;20409;-50
2024/01/03 08:29:14;;;;;;;10.95;3.67;;;;;;;;;;5017481;28;20170;-54
2024/01/03 08:31:40;;;;;;;8.05;3.88;;;;;;;;;;5017521;28;20028;-52
2024/01/03 08:34:05;;;;;;;7.72;3.50;;;;;;;;;;5018002;28;20033;-52
2024/01/03 08:36:40;;;;;;;11.15;4.13;;;;;;;;;;5018559;28;20037;-54
2024/01/03 08:39:07;;;;;;;5.50;3.20;;;;;;;;;;5017118;28;20063;-54
2024/01/03 08:41:32;;;;;;;8.82;3.13;;;;;;;;;;5016525;28;20036;-53
2024/01/03 08:43:57;;;;;;;11.73;3.65;;;;;;;;;;5023779;28;20036;-53
2024/01/03 08:46:25;;;;;;;8.82;3.22;;;;;;;;;;5021943;28;20166;-54
2024/01/03 08:48:50;;;;;;;5.70;3.00;;;;;;;;;;5019291;28;20982;-52
2024/01/03 08:51:17;;;;;;;6.32;2.50;;;;;;;;;;5010428;28;20021;-56
2024/01/03 08:53:42;;;;;;;9.93;3.33;;;;;;;;;;5012749;28;21066;-57
2024/01/03 08:56:14;;;;;;;6.10;2.90;;;;;;;;;;5013199;28;20044;-55
2024/01/03 08:58:40;;;;;;;14.10;3.05;;;;;;;;;;5010543;28;21108;-56
2024/01/03 09:01:05;;;;;;;6.82;3.33;;;;;;;;;;5018566;28;20076;-54
2024/01/03 09:03:30;;;;;;;7.00;2.90;;;;;;;;;;5022046;28;20478;-55
2024/01/03 09:05:56;;;;;;;6.72;2.70;;;;;;;;;;5026414;28;20021;-54
2024/01/03 09:08:21;;;;;;;6.70;2.40;;;;;;;;;;5017413;28;20033;-56
2024/01/03 09:10:48;;;;;;;4.78;2.30;;;;;;;;;;5018814;28;20361;-56
2024/01/03 09:13:13;;;;;;;4.40;1.92;;;;;;;;;;5017111;28;20116;-55
2024/01/03 09:15:39;;;;;;;4.75;2.15;;;;;;;;;;5018233;28;20067;-56
2024/01/03 09:18:04;;;;;;;5.35;2.60;;;;;;;;;;5017677;28;20034;-55
2024/01/03 09:20:29;;;;;;;3.75;2.10;;;;;;;;;;5014777;28;20496;-54
2024/01/03 09:22:55;;;;;;;3.95;1.85;;;;;;;;;;5013520;28;20024;-57
2024/01/03 09:25:20;;;;;;;6.32;2.53;;;;;;;;;;5014938;28;20102;-54
2024/01/03 09:27:45;;;;;;;3.92;2.45;;;;;;;;;;5000390;28;20119;-54
2024/01/03 09:30:11;;;;;;;4.20;2.10;;;;;;;;;;5021787;28;20039;-58
2024/01/03 09:32:36;;;;;;;5.60;2.33;;;;;;;;;;5020786;28;20262;-57
2024/01/03 09:35:01;;;;;;;6.57;2.58;;;;;;;;;;5037475;28;21070;-57
2024/01/03 09:37:29;;;;;;;8.77;2.70;;;;;;;;;;5015152;28;20035;-57
2024/01/03 09:39:54;;;;;;;4.97;2.10;;;;;;;;;;5014245;28;20037;-55
2024/01/03 09:42:19;;;;;;;6.00;2.20;;;;;;;;;;5014697;28;20116;-54
2024/01/03 09:44:45;;;;;;;8.02;2.53;;;;;;;;;;5017615;28;20029;-55
2024/01/03 09:47:12;;;;;;;8.18;2.17;;;;;;;;;;5022630;28;20370;-55
2024/01/03 09:49:37;;;;;;;6.00;1.83;;;;;;;;;;5021100;28;20071;-54
2024/01/03 09:52:03;;;;;;;8.27;2.17;;;;;;;;;;5018262;28;20029;-54
2024/01/03 09:54:31;;;;;;;7.30;2.13;;;;;;;;;;5018502;28;20793;-50
2024/01/03 09:56:56;;;;;;;5.10;1.88;;;;;;;;;;5017731;28;20029;-55
2024/01/03 09:59:21;;;;;;;3.95;1.80;;;;;;;;;;5020392;28;20855;-56
2024/01/03 10:01:54;;;;;;;8.35;2.20;;;;;;;;;;5021458;28;20285;-50
2024/01/03 10:04:20;;;;;;;3.63;2.00;;;;;;;;;;5021113;28;20386;-48
2024/01/03 10:06:57;;;;;;;8.77;2.15;;;;;;;;;;5021538;28;20044;-56
2024/01/03 10:09:22;;;;;;;12.27;2.13;;;;;;;;;;5015778;28;20029;-55
2024/01/03 10:11:52;;;;;;;6.10;2.33;;;;;;;;;;5011238;28;20429;-56
2024/01/03 10:14:19;;;;;;;6.45;1.90;;;;;;;;;;5026923;28;20057;-53
2024/01/03 10:16:45;;;;;;;7.05;1.95;;;;;;;;;;5010988;28;20026;-54
2024/01/03 10:19:11;;;;;;;5.85;2.53;;;;;;;;;;5044622;28;20033;-52
2024/01/03 10:21:46;;;;;;;6.43;2.00;;;;;;;;;;5015493;28;20033;-53
2024/01/03 10:24:11;;;;;;;5.20;2.55;;;;;;;;;;5014791;28;20523;-55
2024/01/03 10:26:37;;;;;;;6.82;2.22;;;;;;;;;;5017339;28;20033;-52
2024/01/03 10:29:12;;;;;;;6.05;2.30;;;;;;;;;;5022294;28;20525;-51
2024/01/03 10:31:37;;;;;;;6.90;1.65;;;;;;;;;;5020935;28;20043;-54
2024/01/03 10:34:04;;;;;;;5.03;2.65;;;;;;;;;;5021513;28;20576;-58
2024/01/03 10:36:31;;;;;;;5.68;2.45;;;;;;;;;;5027287;28;21104;-54
2024/01/03 10:38:58;;;;;;;7.35;2.50;;;;;;;;;;5020310;28;20655;-53
2024/01/03 10:41:23;;;;;;;6.47;2.40;;;;;;;;;;5023578;28;21898;-47
2024/01/03 10:43:49;;;;;;;4.18;2.15;;;;;;;;;;5036884;28;20028;-52
2024/01/03 10:46:15;;;;;;;5.57;1.88;;;;;;;;;;5045145;28;20025;-48
2024/01/03 10:48:40;;;;;;;5.05;2.30;;;;;;;;;;5024765;28;20032;-48
2024/01/03 10:51:10;;;;;;;8.80;2.40;;;;;;;;;;5019844;28;20033;-47
2024/01/03 10:53:35;;;;;;;;;;;;;;;;;;5022395;28;20644;-45
2024/01/03 10:56:02;;;;;;;7.10;1.95;;;;;;;;;;5019404;28;20178;-49
2024/01/03 10:58:27;;;;;;;6.82;2.67;;;;;;;;;;5021687;28;20110;-50
2024/01/03 11:01:05;;;;;;;5.63;1.90;;;;;;;;;;5019698;28;20029;-48
2024/01/03 11:03:45;;;;;;;5.45;2.10;;;;;;;;;;5019025;28;20044;-47
2024/01/03 11:06:22;;;;;;;9.63;1.70;;;;;;;;;;5020453;28;20051;-50
2024/01/03 11:08:52;;;;;;;6.68;1.60;;;;;;;;;;5029293;28;20475;-47
2024/01/03 11:11:27;;;;;;;4.68;1.70;;;;;;;;;;5017961;28;20057;-48
2024/01/03 11:13:53;;;;;;;6.68;2.40;;;;;;;;;;5019643;28;20041;-50
2024/01/03 11:16:32;;;;;;;12.45;2.78;;;;;;;;;;5021743;28;20044;-47
2024/01/03 11:18:58;;;;;;;10.77;2.90;;;;;;;;;;5020939;28;20495;-46
2024/01/03 11:21:26;;;;;;;7.78;2.15;;;;;;;;;;5027105;28;20025;-49
2024/01/03 11:23:51;;;;;;;4.03;2.22;;;;;;;;;;5021896;28;20480;-50
2024/01/03 11:26:17;;;;;;;10.93;2.60;;;;;;;;;;5020155;28;20030;-53
2024/01/03 11:28:48;;;;;;;9.55;2.60;;;;;;;;;;5026371;28;20045;-56
2024/01/03 11:31:13;;;;;;;13.43;2.33;;;;;;;;;;5019360;28;20112;-55
2024/01/03 11:33:39;;;;;;;4.93;1.77;;;;;;;;;;5020180;28;20033;-54
2024/01/03 11:36:05;;;;;;;8.50;2.72;;;;;;;;;;5022382;28;20391;-53
2024/01/03 11:38:56;;;;;;;6.25;2.00;;;;;;;;;;5022008;28;20029;-50
2024/01/03 11:41:26;;;;;;;14.43;4.07;;;;;;;;;;4990538;28;20053;-54
2024/01/03 11:43:51;;;;;;;9.75;3.83;;;;;;;;;;4988889;28;20041;-54
2024/01/03 11:46:17;;;;;;;6.10;2.90;;;;;;;;;;4982028;28;20883;-55
2024/01/03 11:48:45;;;;;;;7.45;3.20;;;;;;;;;;4978937;28;20044;-52
2024/01/03 11:51:24;;;;;;;24.52;5.20;;;;;;;;;;4978183;28;21802;-55
2024/01/03 11:53:50;;;;;;;6.18;2.28;;;;;;;;;;4980162;28;20026;-51
2024/01/03 11:56:27;;;;;;;10.02;2.13;;;;;;;;;;4976770;28;20049;-53
2024/01/03 11:58:57;;;;;;;11.05;2.60;;;;;;;;;;4984318;28;20471;-55
2024/01/03 12:01:22;;;;;;;3.95;1.80;;;;;;;;;;4964922;28;20406;-53
2024/01/03 12:03:48;;;;;;;8.30;2.22;;;;;;;;;;4989650;28;20093;-57
2024/01/03 12:06:13;;;;;;;4.63;1.83;;;;;;;;;;4985610;28;20050;-55
2024/01/03 12:08:38;;;;;;;30.67;6.93;;;;;;;;;;4983004;28;20219;-56
2024/01/03 12:11:04;;;;;;;5.72;2.30;;;;;;;;;;4985911;28;20641;-55
2024/01/03 12:13:29;;;;;;;7.53;3.08;;;;;;;;;;4982032;28;20068;-56
2024/01/03 12:16:00;;;;;;;7.13;2.13;;;;;;;;;;4966016;28;20182;-58
2024/01/03 12:18:26;;;;;;;6.00;1.90;;;;;;;;;;5002413;28;20056;-56
2024/01/03 12:20:53;;;;;;;7.28;2.00;;;;;;;;;;5017901;28;20037;-53
2024/01/03 12:23:19;;;;;;;11.88;2.20;;;;;;;;;;5019884;28;20516;-58
2024/01/03 12:25:45;;;;;;;6.18;1.85;;;;;;;;;;5018101;28;20091;-58
2024/01/03 12:28:12;;;;;;;9.18;2.38;;;;;;;;;;5015600;28;20163;-51
2024/01/03 12:30:38;;;;;;;5.70;2.47;;;;;;;;;;5019647;28;20456;-58
2024/01/03 12:33:24;;;;;;;7.35;2.30;;;;;;;;;;5019974;28;20031;-56
2024/01/03 12:35:51;;;;;;;4.18;1.90;;;;;;;;;;5019566;28;20072;-59
2024/01/03 12:38:20;;;;;;;6.03;2.00;;;;;;;;;;5018495;28;20091;-59
2024/01/03 12:40:45;;;;;;;7.22;1.50;;;;;;;;;;5019448;28;20035;-59
2024/01/03 12:43:11;;;;;;;6.28;1.75;;;;;;;;;;5019285;28;20061;-58
2024/01/03 12:45:36;;;;;;;4.35;1.63;;;;;;;;;;5025230;28;20415;-57
2024/01/03 12:48:01;;;;;;;4.97;1.65;;;;;;;;;;5018765;28;20492;-58
2024/01/03 12:50:26;;;;;;;7.80;2.08;;;;;;;;;;5016145;28;20075;-56
2024/01/03 12:52:52;;;;;;;9.68;2.22;;;;;;;;;;5017450;28;20052;-58
2024/01/03 12:55:18;;;;;;;9.80;2.15;;;;;;;;;;5019466;28;20114;-53
2024/01/03 12:57:43;;;;;;;5.32;2.17;;;;;;;;;;5020852;28;20512;-51
2024/01/03 13:00:10;;;;;;;6.05;2.03;;;;;;;;;;5018132;28;20143;-51
2024/01/03 13:02:35;;;;;;;6.25;2.20;;;;;;;;;;5020715;28;20048;-49
2024/01/03 13:05:00;;;;;;;5.05;2.38;;;;;;;;;;5024560;28;20465;-52
2024/01/03 13:07:26;;;;;;;3.72;1.90;;;;;;;;;;5021841;28;20083;-54
2024/01/03 13:09:51;;;;;;;5.68;2.30;;;;;;;;;;5021482;28;20103;-54
2024/01/03 13:12:18;;;;;;;4.77;2.37;;;;;;;;;;5020768;28;20133;-56
2024/01/03 13:14:44;;;;;;;5.25;2.03;;;;;;;;;;5038263;28;20355;-58
2024/01/03 13:17:09;;;;;;;4.45;1.90;;;;;;;;;;5022661;28;20224;-53
2024/01/03 13:19:35;;;;;;;7.57;2.83;;;;;;;;;;5020338;28;20354;-60
2024/01/03 13:22:01;;;;;;;7.20;2.42;;;;;;;;;;5020968;28;20351;-58
2024/01/03 13:24:27;;;;;;;8.88;2.75;;;;;;;;;;5018349;28;20037;-58
2024/01/03 13:26:52;;;;;;;10.82;2.40;;;;;;;;;;5022366;28;20056;-60
2024/01/03 13:29:17;;;;;;;5.38;2.17;;;;;;;;;;5023222;28;20032;-59
2024/01/03 13:31:42;;;;;;;5.20;2.55;;;;;;;;;;5022184;28;20094;-58
2024/01/03 13:34:08;;;;;;;5.78;2.13;;;;;;;;;;5024272;28;20033;-61
2024/01/03 13:36:33;;;;;;;4.40;2.08;;;;;;;;;;5022703;28;20065;-57
2024/01/03 13:38:58;;;;;;;3.67;2.20;;;;;;;;;;5020589;28;20025;-55
2024/01/03 13:41:23;;;;;;;5.57;1.80;;;;;;;;;;5022671;28;20108;-61
2024/01/03 13:43:49;;;;;;;41.25;20.38;;;;;;;;;;5021927;28;20309;-55
2024/01/03 13:46:14;;;;;;;6.53;3.42;;;;;;;;;;5024851;28;20074;-60
2024/01/03 13:48:40;;;;;;;141.40;58.78;;;;;;;;;;5022777;28;20406;-64
2024/01/03 13:51:06;;;;;;;16.80;5.63;;;;;;;;;;5020343;28;20026;-59
2024/01/03 13:53:31;;;;;;;5.32;2.50;;;;;;;;;;5017074;28;20104;-60
2024/01/03 13:55:59;;;;;;;39.23;5.40;;;;;;;;;;5035655;28;20049;-55
2024/01/03 13:58:24;;;;;;;6.78;2.50;;;;;;;;;;5038563;28;20276;-50
2024/01/03 14:00:50;;;;;;;5.95;2.38;;;;;;;;;;5039625;28;20429;-49
2024/01/03 14:03:15;;;;;;;75.97;11.23;;;;;;;;;;5037683;28;20655;-53
2024/01/03 14:05:41;;;;;;;49.88;7.13;;;;;;;;;;5043008;28;20092;-57
2024/01/03 14:08:06;;;;;;;7.43;3.22;;;;;;;;;;5042131;28;20097;-53
2024/01/03 14:10:32;;;;;;;10.18;3.42;;;;;;;;;;5041870;28;20110;-53
2024/01/03 14:12:57;;;;;;;9.82;3.83;;;;;;;;;;5040019;28;20032;-56
2024/01/03 14:15:22;;;;;;;7.68;3.25;;;;;;;;;;5038180;28;20040;-58
2024/01/03 14:17:48;;;;;;;11.05;3.63;;;;;;;;;;5040950;28;20599;-55
2024/01/03 14:20:15;;;;;;;5.25;2.85;;;;;;;;;;5040992;28;20025;-58
2024/01/03 14:22:42;;;;;;;7.07;2.70;;;;;;;;;;5041056;28;20037;-59
2024/01/03 14:27:53;;;;;;;8.07;2.75;;;;;;;;;;5029786;28;20400;-58
2024/01/03 14:30:18;;;;;;;61.83;6.85;;;;;;;;;;5016901;28;20048;-57
2024/01/03 14:32:44;;;;;;;7.35;3.28;;;;;;;;;;5007492;28;20060;-58